createdAt,value
2018-05-02T00:00:09.468Z,16.69
2018-05-02T00:01:10.042Z,16.79
2018-05-02T00:02:10.621Z,16.69
2018-05-02T00:03:55.710Z,16.72
2018-05-02T00:04:56.339Z,16.76
2018-05-02T00:05:56.919Z,16.71
2018-05-02T00:06:57.494Z,16.69
2018-05-02T00:08:42.584Z,16.72
2018-05-02T00:09:43.163Z,16.66
2018-05-02T00:10:43.742Z,16.72
2018-05-02T00:11:44.322Z,16.69
2018-05-02T00:13:29.616Z,16.74
2018-05-02T00:14:30.189Z,16.69
2018-05-02T00:15:30.768Z,16.69
2018-05-02T00:16:31.437Z,16.71
2018-05-02T00:18:16.535Z,16.72
2018-05-02T00:19:17.107Z,16.65
2018-05-02T00:20:17.691Z,16.66
2018-05-02T00:21:18.266Z,16.69
2018-05-02T00:23:03.355Z,16.68
2018-05-02T00:24:03.935Z,16.64
2018-05-02T00:25:04.514Z,16.64
2018-05-02T00:26:05.093Z,16.64
2018-05-02T00:27:50.181Z,16.61
2018-05-02T00:28:50.757Z,16.65
2018-05-02T00:29:51.337Z,16.64
2018-05-02T00:30:51.916Z,16.64
2018-05-02T00:32:37.056Z,16.58
2018-05-02T00:33:37.635Z,16.60
2018-05-02T00:34:38.257Z,16.61
2018-05-02T00:35:38.892Z,16.69
2018-05-02T00:37:24.027Z,16.61
2018-05-02T00:38:24.606Z,16.69
2018-05-02T00:39:25.219Z,16.66
2018-05-02T00:40:25.769Z,16.60
2018-05-02T00:42:10.853Z,16.60
2018-05-02T00:43:11.432Z,16.66
2018-05-02T00:44:12.010Z,16.66
2018-05-02T00:45:12.593Z,16.64
2018-05-02T00:46:57.679Z,16.69
2018-05-02T00:47:58.309Z,16.68
2018-05-02T00:48:58.886Z,16.64
2018-05-02T00:49:59.471Z,16.65
2018-05-02T00:51:44.552Z,16.65
2018-05-02T00:52:45.180Z,16.64
2018-05-02T00:53:45.760Z,16.65
2018-05-02T00:54:46.385Z,16.61
2018-05-02T00:56:31.477Z,16.58
2018-05-02T00:57:32.060Z,16.60
2018-05-02T00:58:32.634Z,16.65
2018-05-02T00:59:33.214Z,16.64
2018-05-02T01:01:18.355Z,16.57
2018-05-02T01:02:18.932Z,16.57
2018-05-02T01:03:19.509Z,16.64
2018-05-02T01:04:20.086Z,16.65
2018-05-02T01:06:05.176Z,16.58
2018-05-02T01:07:05.755Z,16.68
2018-05-02T01:08:06.332Z,16.64
2018-05-02T01:09:06.913Z,16.68
2018-05-02T01:10:52.051Z,16.60
2018-05-02T01:11:52.785Z,16.66
2018-05-02T01:12:53.402Z,16.60
2018-05-02T01:13:53.982Z,16.60
2018-05-02T01:15:39.125Z,16.58
2018-05-02T01:16:39.746Z,16.60
2018-05-02T01:17:40.363Z,16.57
2018-05-02T01:18:40.945Z,16.58
2018-05-02T01:20:26.032Z,16.58
2018-05-02T01:21:26.610Z,16.56
2018-05-02T01:22:27.188Z,16.58
2018-05-02T01:23:27.767Z,16.57
2018-05-02T01:25:12.855Z,16.56
2018-05-02T01:26:13.434Z,16.57
2018-05-02T01:27:14.017Z,16.56
2018-05-02T01:28:14.601Z,16.54
2018-05-02T01:29:59.780Z,16.54
2018-05-02T01:31:00.354Z,16.57
2018-05-02T01:32:00.984Z,16.57
2018-05-02T01:33:01.564Z,16.56
2018-05-02T01:34:46.896Z,16.49
2018-05-02T01:35:47.473Z,16.60
2018-05-02T01:36:48.053Z,16.54
2018-05-02T01:37:48.631Z,16.49
2018-05-02T01:39:33.722Z,16.53
2018-05-02T01:40:34.299Z,16.47
2018-05-02T01:41:34.878Z,16.43
2018-05-02T01:42:35.508Z,16.51
2018-05-02T01:44:20.600Z,16.41
2018-05-02T01:45:21.227Z,16.50
2018-05-02T01:46:21.806Z,16.49
2018-05-02T01:47:22.383Z,16.49
2018-05-02T01:49:07.474Z,16.46
2018-05-02T01:50:08.052Z,16.46
2018-05-02T01:51:08.630Z,16.49
2018-05-02T01:52:09.260Z,16.51
2018-05-02T01:53:54.351Z,16.49
2018-05-02T01:54:54.929Z,16.46
2018-05-02T01:55:55.508Z,16.42
2018-05-02T01:56:56.141Z,16.47
2018-05-02T01:58:41.229Z,16.46
2018-05-02T01:59:41.810Z,16.47
2018-05-02T02:00:42.387Z,16.51
2018-05-02T02:01:42.974Z,16.42
2018-05-02T02:03:28.055Z,16.42
2018-05-02T02:04:28.634Z,16.39
2018-05-02T02:05:29.412Z,16.42
2018-05-02T02:06:29.989Z,16.43
2018-05-02T02:08:15.079Z,16.39
2018-05-02T02:09:15.657Z,16.39
2018-05-02T02:10:16.235Z,16.42
2018-05-02T02:11:16.865Z,16.43
2018-05-02T02:13:01.957Z,16.46
2018-05-02T02:14:02.536Z,16.39
2018-05-02T02:15:03.117Z,16.42
2018-05-02T02:16:03.693Z,16.41
2018-05-02T02:17:48.782Z,16.42
2018-05-02T02:18:49.413Z,16.46
2018-05-02T02:19:49.988Z,16.32
2018-05-02T02:20:50.570Z,16.33
2018-05-02T02:22:35.655Z,16.38
2018-05-02T02:23:36.233Z,16.36
2018-05-02T02:24:36.811Z,16.36
2018-05-02T02:25:37.440Z,16.36
2018-05-02T02:27:22.531Z,16.39
2018-05-02T02:28:23.109Z,16.31
2018-05-02T02:29:23.688Z,16.36
2018-05-02T02:30:24.317Z,16.33
2018-05-02T02:32:09.410Z,16.35
2018-05-02T02:33:09.992Z,16.38
2018-05-02T02:34:10.570Z,16.32
2018-05-02T02:35:11.147Z,16.33
2018-05-02T02:36:56.236Z,16.38
2018-05-02T02:37:56.865Z,16.33
2018-05-02T02:38:57.442Z,16.31
2018-05-02T02:39:58.020Z,16.33
2018-05-02T02:41:43.160Z,16.32
2018-05-02T02:42:43.737Z,16.32
2018-05-02T02:43:44.315Z,16.33
2018-05-02T02:44:44.897Z,16.38
2018-05-02T02:46:30.023Z,16.36
2018-05-02T02:47:30.601Z,16.31
2018-05-02T02:48:31.182Z,16.32
2018-05-02T02:49:31.758Z,16.32
2018-05-02T02:51:16.898Z,16.35
2018-05-02T02:52:17.476Z,16.31
2018-05-02T02:53:18.103Z,16.32
2018-05-02T02:54:18.681Z,16.32
2018-05-02T02:56:03.770Z,16.36
2018-05-02T02:57:04.397Z,16.33
2018-05-02T02:58:05.025Z,16.36
2018-05-02T02:59:05.696Z,16.35
2018-05-02T03:00:50.788Z,16.32
2018-05-02T03:01:51.364Z,16.35
2018-05-02T03:02:51.951Z,16.39
2018-05-02T03:03:52.521Z,16.32
2018-05-02T03:05:37.609Z,16.38
2018-05-02T03:06:38.187Z,16.33
2018-05-02T03:07:38.765Z,16.38
2018-05-02T03:08:39.345Z,16.35
2018-05-02T03:10:24.486Z,16.35
2018-05-02T03:11:25.068Z,16.35
2018-05-02T03:12:25.685Z,16.38
2018-05-02T03:13:26.264Z,16.33
2018-05-02T03:15:11.402Z,16.36
2018-05-02T03:16:11.981Z,16.28
2018-05-02T03:17:12.608Z,16.15
2018-05-02T03:18:13.188Z,16.29
2018-05-02T03:19:58.275Z,16.20
2018-05-02T03:20:58.853Z,16.21
2018-05-02T03:21:59.433Z,16.20
2018-05-02T03:23:00.012Z,16.26
2018-05-02T03:24:45.100Z,16.28
2018-05-02T03:25:45.727Z,16.26
2018-05-02T03:26:46.305Z,16.24
2018-05-02T03:27:46.881Z,16.21
2018-05-02T03:29:31.972Z,16.15
2018-05-02T03:30:32.550Z,16.24
2018-05-02T03:31:33.131Z,16.23
2018-05-02T03:32:33.800Z,16.24
2018-05-02T03:34:18.940Z,16.20
2018-05-02T03:35:19.519Z,16.17
2018-05-02T03:36:20.097Z,16.24
2018-05-02T03:37:20.677Z,16.16
2018-05-02T03:39:05.765Z,16.21
2018-05-02T03:40:06.345Z,16.17
2018-05-02T03:41:06.922Z,16.28
2018-05-02T03:42:07.499Z,16.17
2018-05-02T03:43:52.587Z,16.23
2018-05-02T03:44:53.164Z,16.17
2018-05-02T03:45:53.742Z,16.09
2018-05-02T03:46:54.322Z,16.15
2018-05-02T03:48:39.410Z,16.23
2018-05-02T03:49:40.038Z,16.17
2018-05-02T03:50:40.614Z,16.24
2018-05-02T03:51:41.199Z,16.13
2018-05-02T03:53:26.338Z,16.16
2018-05-02T03:54:26.915Z,16.23
2018-05-02T03:55:27.496Z,16.15
2018-05-02T03:56:28.120Z,16.20
2018-05-02T03:58:13.210Z,16.17
2018-05-02T03:59:13.789Z,16.17
2018-05-02T04:00:14.368Z,16.15
2018-05-02T04:01:14.945Z,16.15
2018-05-02T04:03:00.033Z,16.16
2018-05-02T04:04:00.616Z,16.17
2018-05-02T04:05:01.188Z,16.15
2018-05-02T04:06:01.766Z,16.21
2018-05-02T04:07:46.906Z,16.21
2018-05-02T04:08:47.481Z,16.21
2018-05-02T04:09:48.061Z,16.21
2018-05-02T04:10:48.636Z,16.10
2018-05-02T04:12:33.725Z,16.17
2018-05-02T04:13:34.303Z,16.17
2018-05-02T04:14:34.881Z,16.15
2018-05-02T04:15:35.460Z,16.16
2018-05-02T04:17:20.601Z,16.09
2018-05-02T04:18:21.230Z,16.20
2018-05-02T04:19:21.807Z,16.20
2018-05-02T04:20:22.382Z,16.17
2018-05-02T04:22:07.471Z,16.16
2018-05-02T04:23:08.051Z,16.16
2018-05-02T04:24:08.629Z,16.20
2018-05-02T04:25:09.258Z,16.13
2018-05-02T04:26:54.401Z,16.13
2018-05-02T04:27:54.978Z,16.16
2018-05-02T04:28:55.556Z,16.15
2018-05-02T04:29:56.136Z,16.20
2018-05-02T04:31:41.271Z,16.13
2018-05-02T04:32:41.845Z,16.21
2018-05-02T04:33:42.423Z,16.08
2018-05-02T04:34:43.003Z,16.13
2018-05-02T04:36:28.141Z,16.21
2018-05-02T04:37:28.719Z,16.12
2018-05-02T04:38:29.300Z,16.17
2018-05-02T04:39:29.967Z,16.17
2018-05-02T04:41:15.058Z,16.21
2018-05-02T04:42:15.638Z,16.16
2018-05-02T04:43:16.214Z,16.21
2018-05-02T04:44:16.793Z,16.21
2018-05-02T04:46:01.880Z,16.26
2018-05-02T04:47:02.459Z,16.21
2018-05-02T04:48:03.037Z,16.16
2018-05-02T04:49:03.619Z,16.15
2018-05-02T04:50:48.755Z,16.17
2018-05-02T04:51:49.383Z,16.15
2018-05-02T04:52:50.015Z,16.15
2018-05-02T04:53:50.537Z,16.21
2018-05-02T04:55:35.626Z,16.15
2018-05-02T04:56:36.208Z,16.15
2018-05-02T04:57:36.836Z,16.15
2018-05-02T04:58:37.456Z,16.13
2018-05-02T05:00:22.550Z,16.13
2018-05-02T05:01:23.169Z,16.09
2018-05-02T05:02:23.747Z,16.02
2018-05-02T05:03:24.325Z,16.13
2018-05-02T05:05:09.417Z,16.01
2018-05-02T05:06:09.995Z,16.04
2018-05-02T05:07:10.574Z,16.05
2018-05-02T05:08:11.153Z,16.05
2018-05-02T05:09:56.292Z,16.09
2018-05-02T05:10:56.868Z,16.05
2018-05-02T05:11:57.495Z,16.05
2018-05-02T05:12:58.073Z,16.05
2018-05-02T05:14:43.362Z,16.04
2018-05-02T05:15:43.940Z,16.09
2018-05-02T05:16:44.518Z,16.04
2018-05-02T05:17:45.149Z,16.09
2018-05-02T05:19:30.239Z,16.01
2018-05-02T05:20:30.817Z,16.05
2018-05-02T05:21:31.394Z,16.02
2018-05-02T05:22:31.974Z,16.08
2018-05-02T05:24:17.113Z,16.05
2018-05-02T05:25:17.690Z,16.05
2018-05-02T05:26:18.269Z,16.05
2018-05-02T05:27:18.847Z,16.08
2018-05-02T05:29:03.937Z,16.01
2018-05-02T05:30:04.565Z,16.05
2018-05-02T05:31:05.242Z,16.04
2018-05-02T05:32:05.817Z,16.04
2018-05-02T05:33:51.109Z,16.02
2018-05-02T05:34:51.787Z,16.05
2018-05-02T05:35:52.366Z,16.10
2018-05-02T05:36:52.944Z,16.05
2018-05-02T05:38:38.036Z,16.05
2018-05-02T05:39:38.613Z,16.05
2018-05-02T05:40:39.190Z,16.08
2018-05-02T05:41:39.769Z,16.04
2018-05-02T05:43:24.859Z,16.09
2018-05-02T05:44:25.439Z,16.00
2018-05-02T05:45:26.015Z,16.01
2018-05-02T05:46:26.594Z,16.02
2018-05-02T05:48:11.776Z,16.01
2018-05-02T05:49:12.353Z,16.00
2018-05-02T05:50:12.981Z,16.01
2018-05-02T05:51:13.557Z,16.01
2018-05-02T05:52:58.699Z,15.98
2018-05-02T05:53:59.383Z,16.00
2018-05-02T05:54:59.851Z,16.02
2018-05-02T05:56:00.428Z,15.98
2018-05-02T05:57:45.519Z,15.95
2018-05-02T05:58:46.097Z,16.01
2018-05-02T05:59:46.674Z,16.02
2018-05-02T06:00:47.281Z,15.97
2018-05-02T06:02:32.342Z,15.98
2018-05-02T06:03:32.920Z,15.98
2018-05-02T06:04:33.552Z,15.95
2018-05-02T06:05:34.124Z,15.92
2018-05-02T06:07:19.216Z,16.00
2018-05-02T06:08:19.791Z,16.02
2018-05-02T06:09:20.421Z,15.97
2018-05-02T06:10:21.039Z,15.98
2018-05-02T06:12:06.328Z,16.00
2018-05-02T06:13:06.905Z,16.04
2018-05-02T06:14:07.482Z,16.08
2018-05-02T06:15:08.060Z,16.01
2018-05-02T06:16:53.191Z,16.00
2018-05-02T06:17:53.769Z,16.02
2018-05-02T06:18:54.346Z,16.00
2018-05-02T06:19:54.925Z,16.10
2018-05-02T06:21:40.014Z,16.05
2018-05-02T06:22:40.592Z,16.05
2018-05-02T06:23:41.170Z,16.02
2018-05-02T06:24:41.749Z,16.01
2018-05-02T06:26:26.887Z,16.01
2018-05-02T06:27:27.514Z,16.00
2018-05-02T06:28:28.097Z,16.01
2018-05-02T06:29:28.712Z,16.01
2018-05-02T06:31:13.854Z,15.98
2018-05-02T06:32:14.431Z,15.98
2018-05-02T06:33:15.008Z,16.00
2018-05-02T06:34:15.583Z,16.00
2018-05-02T06:36:00.673Z,16.01
2018-05-02T06:37:01.250Z,16.08
2018-05-02T06:38:01.827Z,16.04
2018-05-02T06:39:02.405Z,16.02
2018-05-02T06:40:47.493Z,15.98
2018-05-02T06:41:48.071Z,16.01
2018-05-02T06:42:48.647Z,16.08
2018-05-02T06:43:49.226Z,16.10
2018-05-02T06:45:34.318Z,16.05
2018-05-02T06:46:34.943Z,16.04
2018-05-02T06:47:35.569Z,16.01
2018-05-02T06:48:36.296Z,16.09
2018-05-02T06:50:21.417Z,16.02
2018-05-02T06:51:21.963Z,16.04
2018-05-02T06:52:22.541Z,16.02
2018-05-02T06:53:23.121Z,16.08
2018-05-02T06:55:08.211Z,16.05
2018-05-02T06:56:08.788Z,16.09
2018-05-02T06:57:09.366Z,16.09
2018-05-02T06:58:09.945Z,16.12
2018-05-02T06:59:55.032Z,16.09
2018-05-02T07:00:55.629Z,16.16
2018-05-02T07:01:56.189Z,16.01
2018-05-02T07:02:56.768Z,16.01
2018-05-02T07:04:41.858Z,16.12
2018-05-02T07:05:42.439Z,16.08
2018-05-02T07:06:43.107Z,16.04
2018-05-02T07:07:43.735Z,16.08
2018-05-02T07:09:28.826Z,16.05
2018-05-02T07:10:29.554Z,16.04
2018-05-02T07:11:30.137Z,16.04
2018-05-02T07:12:30.710Z,16.09
2018-05-02T07:14:15.799Z,16.13
2018-05-02T07:15:16.377Z,16.05
2018-05-02T07:16:16.960Z,16.08
2018-05-02T07:17:17.579Z,16.12
2018-05-02T07:19:02.669Z,16.05
2018-05-02T07:20:03.251Z,16.15
2018-05-02T07:21:03.867Z,16.01
2018-05-02T07:22:04.444Z,16.04
2018-05-02T07:23:49.590Z,16.16
2018-05-02T07:24:50.161Z,16.08
2018-05-02T07:25:50.780Z,16.13
2018-05-02T07:26:51.357Z,16.01
2018-05-02T07:28:36.646Z,16.12
2018-05-02T07:29:37.272Z,16.15
2018-05-02T07:30:37.849Z,16.09
2018-05-02T07:31:38.478Z,16.13
2018-05-02T07:33:23.567Z,16.09
2018-05-02T07:34:24.145Z,16.02
2018-05-02T07:35:24.726Z,16.05
2018-05-02T07:36:25.342Z,16.13
2018-05-02T07:38:10.431Z,16.08
2018-05-02T07:39:11.059Z,16.12
2018-05-02T07:40:11.635Z,16.17
2018-05-02T07:41:12.215Z,16.16
2018-05-02T07:42:57.302Z,16.21
2018-05-02T07:43:57.880Z,16.21
2018-05-02T07:44:58.459Z,16.12
2018-05-02T07:45:59.038Z,16.23
2018-05-02T07:47:44.175Z,16.17
2018-05-02T07:48:44.753Z,16.12
2018-05-02T07:49:45.380Z,16.23
2018-05-02T07:50:45.958Z,16.16
2018-05-02T07:52:31.098Z,16.20
2018-05-02T07:53:31.677Z,16.08
2018-05-02T07:54:32.254Z,16.17
2018-05-02T07:55:32.833Z,16.26
2018-05-02T07:57:17.922Z,16.17
2018-05-02T07:58:18.501Z,16.23
2018-05-02T07:59:19.120Z,16.20
2018-05-02T08:00:19.701Z,16.13
2018-05-02T08:02:04.786Z,16.13
2018-05-02T08:03:05.365Z,16.04
2018-05-02T08:04:05.947Z,16.21
2018-05-02T08:05:06.524Z,16.24
2018-05-02T08:06:51.713Z,16.16
2018-05-02T08:07:52.290Z,16.15
2018-05-02T08:08:52.867Z,16.23
2018-05-02T08:09:53.446Z,16.17
2018-05-02T08:11:38.534Z,16.26
2018-05-02T08:12:39.114Z,16.17
2018-05-02T08:13:39.735Z,16.23
2018-05-02T08:14:40.314Z,16.24
2018-05-02T08:16:25.535Z,16.16
2018-05-02T08:17:26.030Z,16.26
2018-05-02T08:18:26.607Z,16.26
2018-05-02T08:19:27.184Z,16.20
2018-05-02T08:21:12.282Z,16.23
2018-05-02T08:22:12.910Z,16.20
2018-05-02T08:23:13.487Z,16.29
2018-05-02T08:24:14.066Z,16.26
2018-05-02T08:25:59.159Z,16.32
2018-05-02T08:26:59.741Z,16.33
2018-05-02T08:28:00.365Z,16.28
2018-05-02T08:29:00.943Z,16.29
2018-05-02T08:30:46.036Z,16.29
2018-05-02T08:31:46.615Z,16.31
2018-05-02T08:32:47.261Z,16.36
2018-05-02T08:33:47.772Z,16.32
2018-05-02T08:35:32.865Z,16.41
2018-05-02T08:36:33.489Z,16.31
2018-05-02T08:37:34.068Z,16.39
2018-05-02T08:38:34.644Z,16.38
2018-05-02T08:40:19.735Z,16.42
2018-05-02T08:41:20.311Z,16.42
2018-05-02T08:42:20.893Z,16.35
2018-05-02T08:43:21.472Z,16.42
2018-05-02T08:45:06.609Z,16.33
2018-05-02T08:46:07.188Z,16.33
2018-05-02T08:47:07.817Z,16.36
2018-05-02T08:48:08.393Z,16.36
2018-05-02T08:49:53.500Z,16.39
2018-05-02T08:50:54.103Z,16.38
2018-05-02T08:51:54.731Z,16.38
2018-05-02T08:52:55.310Z,16.38
2018-05-02T08:54:40.403Z,16.43
2018-05-02T08:55:41.032Z,16.36
2018-05-02T08:56:41.610Z,16.47
2018-05-02T08:57:42.189Z,16.41
2018-05-02T08:59:27.281Z,16.46
2018-05-02T09:00:27.910Z,16.38
2018-05-02T09:01:28.488Z,16.39
2018-05-02T09:02:29.116Z,16.43
2018-05-02T09:04:14.208Z,16.39
2018-05-02T09:05:14.786Z,16.39
2018-05-02T09:06:15.367Z,16.39
2018-05-02T09:07:15.985Z,16.43
2018-05-02T09:09:01.167Z,16.42
2018-05-02T09:10:01.653Z,16.42
2018-05-02T09:11:02.235Z,16.47
2018-05-02T09:12:02.854Z,16.41
2018-05-02T09:13:47.993Z,16.42
2018-05-02T09:14:48.573Z,16.43
2018-05-02T09:15:49.156Z,16.42
2018-05-02T09:16:49.727Z,16.43
2018-05-02T09:18:34.865Z,16.49
2018-05-02T09:19:35.445Z,16.46
2018-05-02T09:20:36.023Z,16.46
2018-05-02T09:21:36.652Z,16.47
2018-05-02T09:23:21.745Z,16.49
2018-05-02T09:24:22.324Z,16.60
2018-05-02T09:25:22.904Z,16.57
2018-05-02T09:26:23.480Z,16.50
2018-05-02T09:28:08.571Z,16.57
2018-05-02T09:29:09.349Z,16.54
2018-05-02T09:30:09.927Z,16.57
2018-05-02T09:31:10.504Z,16.60
2018-05-02T09:32:55.596Z,16.58
2018-05-02T09:33:56.175Z,16.57
2018-05-02T09:34:56.753Z,16.61
2018-05-02T09:35:57.332Z,16.61
2018-05-02T09:37:42.424Z,16.65
2018-05-02T09:38:43.002Z,16.58
2018-05-02T09:39:43.581Z,16.71
2018-05-02T09:40:44.160Z,16.57
2018-05-02T09:42:29.252Z,16.61
2018-05-02T09:43:29.829Z,16.61
2018-05-02T09:44:30.458Z,16.61
2018-05-02T09:45:31.040Z,16.60
2018-05-02T09:47:16.128Z,16.61
2018-05-02T09:48:16.908Z,16.60
2018-05-02T09:49:17.487Z,16.65
2018-05-02T09:50:18.115Z,16.61
2018-05-02T09:52:03.220Z,16.65
2018-05-02T09:53:03.827Z,16.64
2018-05-02T09:54:04.406Z,16.60
2018-05-02T09:55:04.985Z,16.60
2018-05-02T09:56:50.075Z,16.65
2018-05-02T09:57:50.653Z,16.65
2018-05-02T09:58:51.234Z,16.68
2018-05-02T09:59:51.814Z,16.64
2018-05-02T10:01:36.948Z,16.61
2018-05-02T10:02:37.521Z,16.72
2018-05-02T10:03:38.099Z,16.69
2018-05-02T10:04:38.728Z,16.71
2018-05-02T10:06:23.817Z,16.68
2018-05-02T10:07:24.395Z,16.68
2018-05-02T10:08:25.024Z,16.68
2018-05-02T10:09:25.603Z,16.66
2018-05-02T10:11:10.747Z,16.69
2018-05-02T10:12:11.323Z,16.75
2018-05-02T10:13:11.902Z,16.71
2018-05-02T10:14:12.479Z,16.69
2018-05-02T10:15:57.568Z,16.68
2018-05-02T10:16:58.146Z,16.69
2018-05-02T10:17:58.724Z,16.69
2018-05-02T10:18:59.303Z,16.72
2018-05-02T10:20:44.393Z,16.68
2018-05-02T10:21:44.971Z,16.69
2018-05-02T10:22:45.547Z,16.74
2018-05-02T10:23:46.179Z,16.69
2018-05-02T10:25:31.358Z,16.69
2018-05-02T10:26:31.936Z,16.68
2018-05-02T10:27:32.564Z,16.61
2018-05-02T10:28:33.144Z,16.74
2018-05-02T10:30:18.237Z,16.60
2018-05-02T10:31:18.816Z,16.61
2018-05-02T10:32:19.394Z,16.60
2018-05-02T10:33:19.973Z,16.61
2018-05-02T10:35:05.064Z,16.68
2018-05-02T10:36:05.641Z,16.65
2018-05-02T10:37:06.221Z,16.61
2018-05-02T10:38:06.843Z,16.58
2018-05-02T10:39:51.988Z,16.65
2018-05-02T10:40:52.563Z,16.64
2018-05-02T10:41:53.142Z,16.71
2018-05-02T10:42:53.722Z,16.58
2018-05-02T10:44:38.813Z,16.58
2018-05-02T10:45:39.392Z,16.61
2018-05-02T10:46:40.023Z,16.69
2018-05-02T10:47:40.600Z,16.60
2018-05-02T10:49:25.693Z,16.57
2018-05-02T10:50:26.342Z,16.61
2018-05-02T10:51:26.900Z,16.66
2018-05-02T10:52:27.477Z,16.65
2018-05-02T10:54:12.570Z,16.69
2018-05-02T10:55:13.152Z,16.60
2018-05-02T10:56:13.728Z,16.60
2018-05-02T10:57:14.307Z,16.60
2018-05-02T10:58:59.398Z,16.61
2018-05-02T11:00:00.048Z,16.65
2018-05-02T11:01:00.649Z,16.61
2018-05-02T11:02:01.228Z,16.64
2018-05-02T11:03:46.371Z,16.61
2018-05-02T11:04:46.950Z,16.74
2018-05-02T11:05:47.529Z,16.72
2018-05-02T11:06:48.108Z,16.69
2018-05-02T11:08:33.199Z,16.74
2018-05-02T11:09:33.779Z,16.69
2018-05-02T11:10:34.356Z,16.69
2018-05-02T11:11:34.941Z,16.72
2018-05-02T11:13:20.027Z,16.75
2018-05-02T11:14:20.608Z,16.78
2018-05-02T11:15:21.235Z,16.69
2018-05-02T11:16:21.814Z,16.69
2018-05-02T11:18:06.956Z,16.76
2018-05-02T11:19:07.586Z,16.79
2018-05-02T11:20:08.163Z,16.78
2018-05-02T11:21:08.743Z,16.71
2018-05-02T11:22:53.835Z,16.79
2018-05-02T11:23:54.415Z,16.79
2018-05-02T11:24:54.994Z,16.84
2018-05-02T11:25:55.573Z,16.83
2018-05-02T11:27:40.664Z,16.79
2018-05-02T11:28:41.243Z,16.74
2018-05-02T11:29:41.822Z,16.78
2018-05-02T11:30:42.502Z,16.79
2018-05-02T11:32:27.694Z,16.83
2018-05-02T11:33:28.274Z,16.86
2018-05-02T11:34:28.951Z,16.76
2018-05-02T11:35:29.531Z,16.79
2018-05-02T11:37:14.628Z,16.93
2018-05-02T11:38:15.203Z,16.87
2018-05-02T11:39:15.782Z,16.93
2018-05-02T11:40:16.361Z,16.91
2018-05-02T11:42:01.457Z,16.94
2018-05-02T11:43:02.030Z,16.96
2018-05-02T11:44:02.609Z,16.91
2018-05-02T11:45:03.189Z,16.93
2018-05-02T11:46:48.330Z,16.93
2018-05-02T11:47:48.908Z,16.90
2018-05-02T11:48:49.488Z,16.87
2018-05-02T11:49:50.067Z,16.91
2018-05-02T11:51:35.209Z,16.96
2018-05-02T11:52:35.837Z,17.01
2018-05-02T11:53:36.485Z,16.99
2018-05-02T11:54:36.997Z,17.04
2018-05-02T11:56:22.090Z,17.04
2018-05-02T11:57:22.673Z,17.01
2018-05-02T11:58:23.295Z,17.11
2018-05-02T11:59:23.870Z,17.05
2018-05-02T12:01:08.962Z,17.08
2018-05-02T12:02:09.542Z,17.16
2018-05-02T12:03:10.120Z,17.06
2018-05-02T12:04:10.700Z,17.16
2018-05-02T12:05:55.791Z,17.15
2018-05-02T12:06:56.572Z,17.20
2018-05-02T12:07:57.200Z,17.27
2018-05-02T12:08:57.781Z,17.05
2018-05-02T12:10:42.871Z,17.19
2018-05-02T12:11:43.453Z,17.12
2018-05-02T12:12:44.078Z,17.09
2018-05-02T12:13:44.656Z,17.16
2018-05-02T12:15:29.750Z,17.16
2018-05-02T12:16:30.329Z,17.20
2018-05-02T12:17:30.907Z,17.12
2018-05-02T12:18:31.487Z,17.24
2018-05-02T12:20:16.578Z,17.26
2018-05-02T12:21:17.160Z,17.23
2018-05-02T12:22:17.739Z,17.26
2018-05-02T12:23:18.317Z,17.19
2018-05-02T12:25:03.462Z,17.31
2018-05-02T12:26:04.037Z,17.24
2018-05-02T12:27:04.665Z,17.26
2018-05-02T12:28:05.294Z,17.23
2018-05-02T12:29:50.386Z,17.31
2018-05-02T12:30:50.966Z,17.33
2018-05-02T12:31:51.545Z,17.41
2018-05-02T12:32:52.125Z,17.33
2018-05-02T12:34:37.216Z,17.29
2018-05-02T12:35:37.796Z,17.33
2018-05-02T12:36:38.376Z,17.44
2018-05-02T12:37:38.955Z,17.45
2018-05-02T12:39:24.047Z,17.49
2018-05-02T12:40:24.627Z,17.46
2018-05-02T12:41:25.205Z,17.54
2018-05-02T12:42:25.835Z,17.57
2018-05-02T12:44:10.928Z,17.60
2018-05-02T12:45:11.558Z,17.60
2018-05-02T12:46:12.137Z,17.56
2018-05-02T12:47:12.715Z,17.56
2018-05-02T12:48:57.810Z,17.64
2018-05-02T12:49:58.539Z,17.67
2018-05-02T12:50:59.122Z,17.68
2018-05-02T12:51:59.698Z,17.63
2018-05-02T12:53:44.789Z,17.72
2018-05-02T12:54:45.379Z,17.74
2018-05-02T12:55:45.948Z,17.72
2018-05-02T12:56:46.528Z,17.67
2018-05-02T12:58:31.620Z,17.83
2018-05-02T12:59:32.241Z,17.74
2018-05-02T13:00:32.870Z,17.72
2018-05-02T13:01:33.448Z,17.80
2018-05-02T13:03:18.541Z,17.76
2018-05-02T13:04:19.120Z,17.80
2018-05-02T13:05:19.750Z,17.76
2018-05-02T13:06:20.329Z,17.78
2018-05-02T13:08:05.547Z,17.80
2018-05-02T13:09:06.053Z,17.82
2018-05-02T13:10:06.632Z,17.78
2018-05-02T13:11:07.263Z,17.80
2018-05-02T13:12:52.356Z,17.83
2018-05-02T13:13:52.935Z,17.90
2018-05-02T13:14:53.515Z,17.76
2018-05-02T13:15:54.093Z,17.85
2018-05-02T13:17:39.235Z,17.82
2018-05-02T13:18:39.856Z,17.82
2018-05-02T13:19:40.435Z,17.83
2018-05-02T13:20:41.064Z,17.90
2018-05-02T13:22:26.306Z,17.90
2018-05-02T13:23:26.968Z,17.94
2018-05-02T13:24:27.464Z,18.01
2018-05-02T13:25:28.044Z,18.01
2018-05-02T13:27:13.185Z,17.92
2018-05-02T13:28:13.765Z,18.00
2018-05-02T13:29:14.343Z,17.95
2018-05-02T13:30:14.923Z,18.03
2018-05-02T13:32:00.016Z,17.92
2018-05-02T13:33:00.617Z,17.97
2018-05-02T13:34:01.174Z,18.08
2018-05-02T13:35:01.754Z,18.01
2018-05-02T13:36:47.096Z,18.05
2018-05-02T13:37:47.673Z,18.13
2018-05-02T13:38:48.251Z,18.19
2018-05-02T13:39:48.831Z,18.13
2018-05-02T13:41:33.924Z,18.18
2018-05-02T13:42:34.504Z,18.10
2018-05-02T13:43:35.084Z,18.07
2018-05-02T13:44:35.663Z,18.22
2018-05-02T13:46:20.756Z,18.13
2018-05-02T13:47:21.385Z,18.20
2018-05-02T13:48:21.963Z,18.18
2018-05-02T13:49:22.678Z,18.13
2018-05-02T13:51:07.638Z,18.13
2018-05-02T13:52:08.218Z,18.22
2018-05-02T13:53:08.796Z,18.16
2018-05-02T13:54:09.448Z,18.18
2018-05-02T13:55:54.565Z,18.23
2018-05-02T13:56:55.148Z,18.13
2018-05-02T13:57:55.773Z,18.19
2018-05-02T13:58:56.354Z,18.20
2018-05-02T14:00:41.447Z,18.19
2018-05-02T14:01:42.028Z,18.20
2018-05-02T14:02:42.606Z,18.20
2018-05-02T14:03:43.188Z,18.25
2018-05-02T14:05:28.278Z,18.19
2018-05-02T14:06:28.859Z,18.20
2018-05-02T14:07:29.490Z,18.18
2018-05-02T14:08:30.117Z,18.25
2018-05-02T14:10:15.204Z,18.18
2018-05-02T14:11:15.785Z,18.18
2018-05-02T14:12:16.365Z,18.25
2018-05-02T14:13:16.948Z,18.19
2018-05-02T14:15:02.138Z,18.25
2018-05-02T14:16:02.810Z,18.18
2018-05-02T14:17:03.337Z,18.29
2018-05-02T14:18:03.918Z,18.20
2018-05-02T14:19:49.012Z,18.20
2018-05-02T14:20:49.592Z,18.20
2018-05-02T14:21:50.172Z,18.20
2018-05-02T14:22:50.752Z,18.22
2018-05-02T14:24:35.848Z,18.20
2018-05-02T14:25:36.479Z,18.22
2018-05-02T14:26:37.057Z,18.13
2018-05-02T14:27:37.642Z,18.20
2018-05-02T14:29:22.731Z,18.20
2018-05-02T14:30:23.312Z,18.16
2018-05-02T14:31:23.892Z,18.05
2018-05-02T14:32:24.523Z,18.13
2018-05-02T14:34:09.865Z,18.25
2018-05-02T14:35:10.439Z,18.10
2018-05-02T14:36:11.021Z,18.15
2018-05-02T14:37:11.600Z,18.07
2018-05-02T14:38:56.692Z,18.10
2018-05-02T14:39:57.273Z,18.07
2018-05-02T14:40:57.852Z,18.11
2018-05-02T14:41:58.432Z,18.13
2018-05-02T14:43:43.525Z,18.07
2018-05-02T14:44:44.156Z,18.05
2018-05-02T14:45:44.735Z,18.11
2018-05-02T14:46:45.364Z,18.10
2018-05-02T14:48:30.459Z,18.15
2018-05-02T14:49:31.089Z,18.07
2018-05-02T14:50:31.667Z,18.07
2018-05-02T14:51:32.247Z,18.08
2018-05-02T14:53:17.392Z,18.03
2018-05-02T14:54:17.971Z,18.03
2018-05-02T14:55:18.549Z,17.97
2018-05-02T14:56:19.128Z,18.00
2018-05-02T14:58:04.222Z,18.01
2018-05-02T14:59:04.803Z,18.01
2018-05-02T15:00:05.382Z,18.03
2018-05-02T15:01:06.005Z,18.00
2018-05-02T15:02:51.146Z,17.97
2018-05-02T15:03:51.724Z,18.01
2018-05-02T15:04:52.304Z,18.07
2018-05-02T15:05:52.883Z,18.03
2018-05-02T15:07:37.978Z,17.98
2018-05-02T15:08:38.559Z,18.07
2018-05-02T15:09:39.137Z,17.97
2018-05-02T15:10:39.716Z,17.97
2018-05-02T15:12:24.860Z,18.01
2018-05-02T15:13:25.440Z,18.00
2018-05-02T15:14:26.068Z,17.97
2018-05-02T15:15:26.648Z,17.97
2018-05-02T15:17:11.746Z,18.01
2018-05-02T15:18:12.325Z,17.98
2018-05-02T15:19:12.905Z,17.98
2018-05-02T15:20:13.485Z,18.00
2018-05-02T15:21:58.579Z,18.01
2018-05-02T15:22:59.200Z,17.94